MMTP/TAP METAR and TAF weather

Enter ICAO airport designator
Station Type Date Time Source
MMTP METAR 2020/12/06 00:40 UTC NOAA

MMTP 060040Z 00000KT 8SM SCT200 25/25 A2989 RMK 8/007 HZY


Station Type Date Time Source
MMTP Decoded METAR 2020/12/06 00:40 UTC NOAA

Tapachula , Mexico (MMTP) 14-47N 092-23W
Dec 05, 2020 - 07:40 PM EST / 2020.12.06 0040 UTC
Wind: Calm:0
Visibility: 8 mile(s):0
Sky conditions: partly cloudy
Temperature: 77 F (25 C)
Dew Point: 77 F (25 C)
Relative Humidity: 100%
Pressure (altimeter): 29.89 in. Hg (1012 hPa)
ob: MMTP 060040Z 00000KT 8SM SCT200 25/25 A2989 RMK 8/007 HZY
cycle: 0

Station Type Date Time Source
MMTP TAF 2020/12/05 18:37 UTC NOAA

TAF MMTP 051729Z 0518/0624 00000KT P6SM SCT200
FM052000 20010KT P6SM SCT030 BKN200 PROB40 0600/0604 6SM RA BKN030 BKN200
FM060400 00000KT P6SM SCT020 BKN200
FM061700 26010KT P6SM SCT030 BKN200

Example: see airport list